createdAt,value
2019-03-29T00:00:53.931Z,101046.94
2019-03-29T00:03:25.212Z,101046.35
2019-03-29T00:05:56.430Z,101045.77
2019-03-29T00:08:27.778Z,101051.59
2019-03-29T00:10:58.949Z,101051.33
2019-03-29T00:13:30.288Z,101050.84
2019-03-29T00:16:01.624Z,101051.77
2019-03-29T00:18:33.225Z,101046.34
2019-03-29T00:21:04.478Z,101052.77
2019-03-29T00:23:35.666Z,101053.64
2019-03-29T00:26:07.009Z,101050.96
2019-03-29T00:28:38.339Z,101055.16
2019-03-29T00:31:09.710Z,101061.80
2019-03-29T00:33:40.894Z,101058.39
2019-03-29T00:36:12.203Z,101055.09
2019-03-29T00:38:43.478Z,101052.21
2019-03-29T00:41:14.669Z,101046.63
2019-03-29T00:43:45.910Z,101046.74
2019-03-29T00:46:17.111Z,101046.43
2019-03-29T00:48:48.384Z,101038.00
2019-03-29T00:51:19.594Z,101039.55
2019-03-29T00:53:50.944Z,101045.75
2019-03-29T00:56:22.110Z,101043.71
2019-03-29T00:58:53.230Z,101043.59
2019-03-29T01:01:24.367Z,101035.68
2019-03-29T01:03:55.799Z,101029.27
2019-03-29T01:06:26.954Z,101031.05
2019-03-29T01:08:58.240Z,101026.27
2019-03-29T01:11:29.434Z,101025.81
2019-03-29T01:14:00.580Z,101030.93
2019-03-29T01:16:31.756Z,101026.77
2019-03-29T01:19:03.901Z,101022.12
2019-03-29T01:21:35.344Z,101017.88
2019-03-29T01:24:06.607Z,101018.59
2019-03-29T01:26:37.719Z,101010.50
2019-03-29T01:29:08.841Z,101009.08
2019-03-29T01:31:40.242Z,101012.40
2019-03-29T01:34:12.280Z,101012.77
2019-03-29T01:36:43.554Z,101010.52
2019-03-29T01:39:14.727Z,101006.42
2019-03-29T01:41:45.920Z,101006.21
2019-03-29T01:44:17.210Z,101011.09
2019-03-29T01:46:48.448Z,101003.70
2019-03-29T01:49:19.684Z,101007.70
2019-03-29T01:51:50.800Z,101013.08
2019-03-29T01:54:22.042Z,101016.48
2019-03-29T01:56:53.155Z,101016.06
2019-03-29T01:59:24.257Z,101015.19
2019-03-29T02:01:55.491Z,101012.52
2019-03-29T02:04:26.639Z,101015.86
2019-03-29T02:06:57.824Z,101020.48
2019-03-29T02:09:29.031Z,101020.03
2019-03-29T02:12:00.220Z,101026.79
2019-03-29T02:14:31.307Z,101033.58
2019-03-29T02:17:02.585Z,101034.73
2019-03-29T02:19:33.750Z,101035.41
2019-03-29T02:22:05.040Z,101033.13
2019-03-29T02:24:36.193Z,101023.27
2019-03-29T02:27:07.940Z,101030.09
2019-03-29T02:29:39.094Z,101033.86
2019-03-29T02:32:10.296Z,101031.59
2019-03-29T02:34:43.639Z,101032.56
2019-03-29T02:37:14.468Z,101030.30
2019-03-29T02:39:45.653Z,101036.64
2019-03-29T02:42:16.875Z,101040.30
2019-03-29T02:44:48.095Z,101035.56
2019-03-29T02:47:19.434Z,101040.30
2019-03-29T02:49:50.652Z,101040.16
2019-03-29T02:52:21.829Z,101032.38
2019-03-29T02:54:52.984Z,101033.81
2019-03-29T02:57:24.259Z,101034.23
2019-03-29T02:59:55.395Z,101021.37
2019-03-29T03:02:26.752Z,101036.66
2019-03-29T03:04:58.209Z,101034.00
2019-03-29T03:07:29.401Z,101038.32
2019-03-29T03:10:00.608Z,101035.78
2019-03-29T03:12:31.682Z,101036.98
2019-03-29T03:15:02.812Z,101028.50
2019-03-29T03:17:34.029Z,101024.67
2019-03-29T03:20:06.609Z,101028.01
2019-03-29T03:22:37.724Z,101028.52
2019-03-29T03:25:09.920Z,101034.63
2019-03-29T03:27:41.109Z,101036.64
2019-03-29T03:30:13.573Z,101031.50
2019-03-29T03:32:44.970Z,101041.28
2019-03-29T03:35:16.657Z,101036.64
2019-03-29T03:37:47.751Z,101034.47
2019-03-29T03:40:19.219Z,101036.73
2019-03-29T03:42:50.601Z,101037.28
2019-03-29T03:45:21.829Z,101038.34
2019-03-29T03:47:53.049Z,101037.41
2019-03-29T03:50:43.887Z,101042.62
2019-03-29T03:53:15.230Z,101042.32
2019-03-29T03:55:47.347Z,101039.20
2019-03-29T03:58:20.861Z,101038.56
2019-03-29T04:00:56.847Z,101039.08
2019-03-29T04:03:28.579Z,101038.66
2019-03-29T04:06:00.135Z,101034.09
2019-03-29T04:08:31.418Z,101032.23
2019-03-29T04:11:02.790Z,101039.08
2019-03-29T04:13:34.168Z,101035.84
2019-03-29T04:16:06.125Z,101040.36
2019-03-29T04:18:37.363Z,101039.30
2019-03-29T04:21:08.798Z,101040.28
2019-03-29T04:23:39.964Z,101036.42
2019-03-29T04:26:12.111Z,101037.92
2019-03-29T04:28:43.656Z,101038.59
2019-03-29T04:31:14.909Z,101041.05
2019-03-29T04:33:46.195Z,101031.59
2019-03-29T04:36:17.403Z,101030.36
2019-03-29T04:38:48.733Z,101035.80
2019-03-29T04:41:20.066Z,101037.67
2019-03-29T04:43:51.439Z,101034.41
2019-03-29T04:46:22.931Z,101037.55
2019-03-29T04:48:54.415Z,101034.67
2019-03-29T04:51:26.459Z,101039.94
2019-03-29T04:53:57.853Z,101049.94
2019-03-29T04:56:29.295Z,101050.86
2019-03-29T04:59:00.520Z,101047.19
2019-03-29T05:01:31.915Z,101057.70
2019-03-29T05:04:03.258Z,101054.45
2019-03-29T05:06:34.414Z,101055.46
2019-03-29T05:09:07.656Z,101050.98
2019-03-29T05:11:39.194Z,101054.70
2019-03-29T05:14:10.605Z,101057.42
2019-03-29T05:16:41.959Z,101048.64
2019-03-29T05:19:13.445Z,101058.79
2019-03-29T05:21:44.852Z,101052.29
2019-03-29T05:24:16.237Z,101047.45
2019-03-29T05:26:47.674Z,101054.50
2019-03-29T05:29:19.173Z,101052.45
2019-03-29T05:31:53.750Z,101064.36
2019-03-29T05:34:25.260Z,101057.09
2019-03-29T05:37:00.960Z,101046.95
2019-03-29T05:39:38.430Z,101056.64
2019-03-29T05:42:12.584Z,101042.53
2019-03-29T05:44:44.022Z,101055.45
2019-03-29T05:47:15.671Z,101059.13
2019-03-29T05:49:47.066Z,101063.30
2019-03-29T05:52:18.422Z,101063.32
2019-03-29T05:54:50.075Z,101066.61
2019-03-29T05:57:21.323Z,101059.77
2019-03-29T05:59:52.749Z,101064.45
2019-03-29T06:02:24.054Z,101063.61
2019-03-29T06:04:55.430Z,101061.75
2019-03-29T06:07:26.573Z,101061.58
2019-03-29T06:09:57.768Z,101060.81
2019-03-29T06:12:29.147Z,101057.45
2019-03-29T06:15:01.019Z,101061.33
2019-03-29T06:17:32.194Z,101062.34
2019-03-29T06:20:03.493Z,101058.84
2019-03-29T06:22:34.839Z,101055.34
2019-03-29T06:25:11.533Z,101056.14
2019-03-29T06:27:42.944Z,101051.76
2019-03-29T06:30:16.925Z,101055.94
2019-03-29T06:32:48.180Z,101060.19
2019-03-29T06:35:19.361Z,101047.15
2019-03-29T06:37:50.941Z,101055.16
2019-03-29T06:40:27.433Z,101062.06
2019-03-29T06:42:58.609Z,101059.85
2019-03-29T06:45:30.020Z,101060.19
2019-03-29T06:48:01.299Z,101063.13
2019-03-29T06:50:32.646Z,101064.28
2019-03-29T06:53:04.045Z,101067.17
2019-03-29T06:55:35.864Z,101067.95
2019-03-29T06:58:07.162Z,101065.61
2019-03-29T07:00:38.535Z,101068.74
2019-03-29T07:03:09.994Z,101062.15
2019-03-29T07:05:41.206Z,101062.27
2019-03-29T07:08:12.539Z,101063.69
2019-03-29T07:10:43.819Z,101066.41
2019-03-29T07:13:15.167Z,101068.06
2019-03-29T07:15:46.401Z,101070.42
2019-03-29T07:18:18.070Z,101062.81
2019-03-29T07:20:49.359Z,101065.80
2019-03-29T07:23:20.614Z,101067.26
2019-03-29T07:25:52.435Z,101065.16
2019-03-29T07:28:23.623Z,101075.28
2019-03-29T07:30:54.947Z,101070.23
2019-03-29T07:33:26.263Z,101067.67
2019-03-29T07:35:57.549Z,101068.81
2019-03-29T07:38:28.731Z,101065.83
2019-03-29T07:41:02.071Z,101068.70
2019-03-29T07:43:33.306Z,101074.84
2019-03-29T07:46:04.474Z,101080.52
2019-03-29T07:48:35.709Z,101082.88
2019-03-29T07:51:06.929Z,101072.86
2019-03-29T07:53:38.123Z,101073.94
2019-03-29T07:56:09.333Z,101077.76
2019-03-29T07:58:40.711Z,101071.65
2019-03-29T08:01:11.948Z,101072.03
2019-03-29T08:03:43.473Z,101075.31
2019-03-29T08:06:15.241Z,101075.41
2019-03-29T08:08:46.479Z,101065.98
2019-03-29T08:11:26.068Z,101077.31
2019-03-29T08:13:50.632Z,101076.81
2019-03-29T08:16:22.230Z,101072.59
2019-03-29T08:18:53.527Z,101072.03
2019-03-29T08:21:25.156Z,101075.99
2019-03-29T08:23:56.484Z,101073.48
2019-03-29T08:26:27.698Z,101067.21
2019-03-29T08:28:58.862Z,101062.08
2019-03-29T08:31:30.079Z,101068.67
2019-03-29T08:34:01.284Z,101072.59
2019-03-29T08:36:32.596Z,101068.45
2019-03-29T08:39:05.068Z,101068.09
2019-03-29T08:41:36.518Z,101067.28
2019-03-29T08:44:07.791Z,101064.32
2019-03-29T08:46:39.009Z,101063.31
2019-03-29T08:49:10.400Z,101059.38
2019-03-29T08:51:41.714Z,101062.86
2019-03-29T08:54:13.134Z,101066.81
2019-03-29T08:56:44.525Z,101064.47
2019-03-29T08:59:17.500Z,101063.05
2019-03-29T09:01:48.715Z,101062.61
2019-03-29T09:04:21.745Z,101065.77
2019-03-29T09:06:54.115Z,101062.73
2019-03-29T09:09:25.826Z,101062.72
2019-03-29T09:11:57.248Z,101065.62
2019-03-29T09:14:31.263Z,101064.95
2019-03-29T09:17:01.619Z,101065.14
2019-03-29T09:19:32.828Z,101063.82
2019-03-29T09:22:04.153Z,101061.63
2019-03-29T09:24:35.534Z,101054.41
2019-03-29T09:27:06.932Z,101055.25
2019-03-29T09:29:38.305Z,101051.27
2019-03-29T09:32:09.755Z,101056.28
2019-03-29T09:34:41.003Z,101054.75
2019-03-29T09:37:12.285Z,101060.94
2019-03-29T09:39:44.174Z,101058.62
2019-03-29T09:42:28.146Z,101067.28
2019-03-29T09:44:48.485Z,101064.44
2019-03-29T09:47:19.609Z,101068.19
2019-03-29T09:49:50.839Z,101062.05
2019-03-29T09:52:22.076Z,101057.94
2019-03-29T09:54:54.188Z,101051.91
2019-03-29T09:57:36.811Z,101051.58
2019-03-29T09:59:58.470Z,101048.29
2019-03-29T10:02:29.599Z,101049.38
2019-03-29T10:05:02.896Z,101046.64
2019-03-29T10:07:34.151Z,101045.35
2019-03-29T10:10:06.551Z,101049.06
2019-03-29T10:12:43.860Z,101043.25
2019-03-29T10:15:11.482Z,101042.62
2019-03-29T10:17:42.794Z,101038.90
2019-03-29T10:20:14.195Z,101037.70
2019-03-29T10:22:45.475Z,101041.05
2019-03-29T10:25:19.779Z,101027.76
2019-03-29T10:27:49.802Z,101024.48
2019-03-29T10:30:41.534Z,101034.30
2019-03-29T10:33:12.772Z,101031.56
2019-03-29T10:35:52.158Z,101024.91
2019-03-29T10:38:18.456Z,101017.03
2019-03-29T10:40:50.745Z,101013.88
2019-03-29T10:43:22.043Z,101011.86
2019-03-29T10:45:53.210Z,101015.05
2019-03-29T10:48:24.414Z,101015.58
2019-03-29T10:50:55.917Z,101012.06
2019-03-29T10:53:28.693Z,101011.26
2019-03-29T10:56:00.448Z,101007.48
2019-03-29T10:58:31.611Z,101015.26
2019-03-29T11:01:03.080Z,101007.88
2019-03-29T11:03:34.446Z,101002.55
2019-03-29T11:06:05.736Z,101009.20
2019-03-29T11:08:36.990Z,101005.26
2019-03-29T11:11:08.176Z,101003.09
2019-03-29T11:13:41.195Z,100999.78
2019-03-29T11:16:12.331Z,101002.97
2019-03-29T11:18:45.802Z,101005.88
2019-03-29T11:21:16.777Z,101006.81
2019-03-29T11:23:48.089Z,101013.78
2019-03-29T11:26:19.930Z,101009.61
2019-03-29T11:28:51.211Z,101006.97
2019-03-29T11:31:25.349Z,101007.56
2019-03-29T11:33:55.676Z,100998.15
2019-03-29T11:36:27.088Z,101001.50
2019-03-29T11:38:58.442Z,100996.27
2019-03-29T11:41:31.594Z,100998.52
2019-03-29T11:44:02.829Z,100988.72
2019-03-29T11:46:34.014Z,100994.45
2019-03-29T11:49:05.484Z,100991.84
2019-03-29T11:51:36.758Z,100997.92
2019-03-29T11:54:08.118Z,100996.09
2019-03-29T11:56:39.389Z,100988.86
2019-03-29T11:59:10.768Z,100994.27
2019-03-29T12:01:45.547Z,100999.55
2019-03-29T12:04:16.888Z,100988.89
2019-03-29T12:06:48.305Z,100982.84
2019-03-29T12:09:19.568Z,100981.23
2019-03-29T12:11:50.828Z,100977.54
2019-03-29T12:14:22.019Z,100975.73
2019-03-29T12:16:53.359Z,100971.39
2019-03-29T12:19:24.479Z,100968.63
2019-03-29T12:21:55.672Z,100962.69
2019-03-29T12:24:26.831Z,100964.80
2019-03-29T12:26:57.925Z,100959.48
2019-03-29T12:29:29.170Z,100960.17
2019-03-29T12:32:00.474Z,100957.12
2019-03-29T12:34:31.668Z,100954.16
2019-03-29T12:37:03.029Z,100948.01
2019-03-29T12:39:34.235Z,100950.59
2019-03-29T12:42:06.128Z,100947.70
2019-03-29T12:44:37.544Z,100940.20
2019-03-29T12:47:08.786Z,100938.06
2019-03-29T12:49:40.029Z,100933.66
2019-03-29T12:52:11.554Z,100930.93
2019-03-29T12:54:42.809Z,100925.34
2019-03-29T12:57:14.004Z,100927.99
2019-03-29T12:59:46.084Z,100917.98
2019-03-29T13:02:19.647Z,100915.68
2019-03-29T13:04:50.888Z,100911.42
2019-03-29T13:07:22.257Z,100924.73
2019-03-29T13:09:53.608Z,100906.28
2019-03-29T13:12:24.904Z,100901.09
2019-03-29T13:14:56.144Z,100898.14
2019-03-29T13:17:28.638Z,100893.98
2019-03-29T13:19:59.998Z,100899.50
2019-03-29T13:22:34.598Z,100899.02
2019-03-29T13:25:07.359Z,100898.27
2019-03-29T13:27:37.596Z,100898.02
2019-03-29T13:30:10.624Z,100891.66
2019-03-29T13:32:41.943Z,100884.59
2019-03-29T13:35:13.385Z,100875.02
2019-03-29T13:37:44.626Z,100874.41
2019-03-29T13:40:16.198Z,100863.72
2019-03-29T13:42:47.543Z,100865.95
2019-03-29T13:45:27.676Z,100851.70
2019-03-29T13:47:56.144Z,100853.61
2019-03-29T13:50:27.574Z,100844.63
2019-03-29T13:52:58.863Z,100845.67
2019-03-29T13:55:30.101Z,100838.42
2019-03-29T13:58:01.421Z,100834.75
2019-03-29T14:00:32.784Z,100833.02
2019-03-29T14:03:04.056Z,100841.09
2019-03-29T14:05:35.348Z,100832.25
2019-03-29T14:08:06.635Z,100827.52
2019-03-29T14:10:37.963Z,100824.77
2019-03-29T14:13:09.378Z,100824.38
2019-03-29T14:15:40.532Z,100826.31
2019-03-29T14:18:11.844Z,100819.17
2019-03-29T14:20:43.159Z,100819.23
2019-03-29T14:23:14.459Z,100813.24
2019-03-29T14:25:45.674Z,100817.92
2019-03-29T14:28:16.988Z,100816.06
2019-03-29T14:30:48.303Z,100804.48
2019-03-29T14:33:19.697Z,100804.30
2019-03-29T14:35:51.618Z,100805.42
2019-03-29T14:38:23.159Z,100808.80
2019-03-29T14:40:54.562Z,100804.55
2019-03-29T14:43:25.919Z,100799.45
2019-03-29T14:45:57.254Z,100797.34
2019-03-29T14:48:28.559Z,100795.95
2019-03-29T14:50:59.770Z,100789.99
2019-03-29T14:53:31.020Z,100787.80
2019-03-29T14:56:02.275Z,100778.59
2019-03-29T14:58:33.573Z,100778.59
2019-03-29T15:01:04.949Z,100777.74
2019-03-29T15:03:36.227Z,100772.89
2019-03-29T15:06:07.407Z,100771.88
2019-03-29T15:08:38.779Z,100767.42
2019-03-29T15:11:21.563Z,100771.31
2019-03-29T15:13:43.034Z,100765.45
2019-03-29T15:16:14.284Z,100762.19
2019-03-29T15:18:45.734Z,100761.30
2019-03-29T15:21:17.083Z,100759.53
2019-03-29T15:23:48.208Z,100751.72
2019-03-29T15:26:19.505Z,100756.48
2019-03-29T15:28:50.769Z,100750.91
2019-03-29T15:31:22.039Z,100746.52
2019-03-29T15:33:55.615Z,100754.53
2019-03-29T15:36:26.283Z,100753.50
2019-03-29T15:38:57.864Z,100752.78
2019-03-29T15:41:29.187Z,100747.81
2019-03-29T15:44:00.493Z,100746.27
2019-03-29T15:46:31.869Z,100751.46
2019-03-29T15:49:03.013Z,100742.62
2019-03-29T15:51:34.434Z,100742.28
2019-03-29T15:54:05.687Z,100746.10
2019-03-29T15:56:36.904Z,100750.97
2019-03-29T15:59:08.094Z,100744.36
2019-03-29T16:01:39.375Z,100744.45
2019-03-29T16:04:10.569Z,100747.69
2019-03-29T16:06:42.079Z,100740.70
2019-03-29T16:09:13.409Z,100740.05
2019-03-29T16:11:44.632Z,100743.57
2019-03-29T16:14:15.984Z,100739.19
2019-03-29T16:16:47.337Z,100745.26
2019-03-29T16:19:18.669Z,100736.06
2019-03-29T16:21:49.926Z,100737.61
2019-03-29T16:24:21.127Z,100728.95
2019-03-29T16:26:52.528Z,100734.14
2019-03-29T16:29:23.775Z,100733.92
2019-03-29T16:31:55.021Z,100730.59
2019-03-29T16:34:26.248Z,100722.69
2019-03-29T16:36:57.456Z,100721.91
2019-03-29T16:39:28.740Z,100724.49
2019-03-29T16:42:00.028Z,100721.35
2019-03-29T16:44:31.344Z,100715.05
2019-03-29T16:47:02.585Z,100708.31
2019-03-29T16:49:33.939Z,100712.41
2019-03-29T16:52:05.245Z,100713.98
2019-03-29T16:54:36.574Z,100713.61
2019-03-29T16:57:07.749Z,100707.28
2019-03-29T16:59:38.963Z,100702.91
2019-03-29T17:02:10.346Z,100700.80
2019-03-29T17:04:41.491Z,100695.44
2019-03-29T17:07:12.634Z,100690.59
2019-03-29T17:09:43.952Z,100694.78
2019-03-29T17:12:15.258Z,100691.07
2019-03-29T17:14:46.579Z,100686.49
2019-03-29T17:17:19.945Z,100681.48
2019-03-29T17:19:51.309Z,100687.73
2019-03-29T17:22:23.765Z,100676.77
2019-03-29T17:24:57.192Z,100685.03
2019-03-29T17:27:28.108Z,100682.30
2019-03-29T17:29:59.310Z,100679.59
2019-03-29T17:32:30.718Z,100681.00
2019-03-29T17:35:01.841Z,100676.25
2019-03-29T17:37:33.124Z,100678.84
2019-03-29T17:40:05.109Z,100675.47
2019-03-29T17:42:36.393Z,100678.67
2019-03-29T17:45:08.292Z,100676.46
2019-03-29T17:47:39.527Z,100676.33
2019-03-29T17:50:10.997Z,100676.45
2019-03-29T17:52:42.574Z,100681.84
2019-03-29T17:55:17.294Z,100680.20
2019-03-29T17:57:48.801Z,100681.18
2019-03-29T18:00:22.938Z,100673.41
2019-03-29T18:02:54.155Z,100675.28
2019-03-29T18:05:25.396Z,100671.19
2019-03-29T18:07:58.334Z,100675.64
2019-03-29T18:10:29.524Z,100675.21
2019-03-29T18:13:02.310Z,100676.44
2019-03-29T18:15:33.624Z,100675.63
2019-03-29T18:18:06.004Z,100674.13
2019-03-29T18:20:37.467Z,100675.39
2019-03-29T18:23:09.924Z,100675.83
2019-03-29T18:25:42.709Z,100675.75
2019-03-29T18:28:18.718Z,100673.42
2019-03-29T18:30:50.265Z,100683.77
2019-03-29T18:33:24.358Z,100679.09
2019-03-29T18:35:56.180Z,100682.45
2019-03-29T18:38:29.878Z,100668.79
2019-03-29T18:41:01.153Z,100671.97
2019-03-29T18:43:32.484Z,100672.27
2019-03-29T18:46:04.420Z,100673.73
2019-03-29T18:48:35.829Z,100668.09
2019-03-29T18:51:09.644Z,100666.77
2019-03-29T18:53:41.094Z,100672.22
2019-03-29T18:56:16.808Z,100662.86
2019-03-29T18:58:49.083Z,100666.56
2019-03-29T19:01:20.378Z,100659.70
2019-03-29T19:03:52.039Z,100662.53
2019-03-29T19:06:25.306Z,100664.63
2019-03-29T19:08:59.888Z,100662.22
2019-03-29T19:11:34.535Z,100664.42
2019-03-29T19:14:08.329Z,100663.44
2019-03-29T19:16:42.731Z,100663.24
2019-03-29T19:19:14.269Z,100658.40
2019-03-29T19:21:54.451Z,100660.53
2019-03-29T19:24:27.897Z,100651.72
2019-03-29T19:27:02.872Z,100654.27
2019-03-29T19:29:34.984Z,100657.00
2019-03-29T19:32:15.069Z,100647.23
2019-03-29T19:34:48.506Z,100643.16
2019-03-29T19:37:19.919Z,100649.69
2019-03-29T19:39:52.463Z,100646.52
2019-03-29T19:42:23.720Z,100648.79
2019-03-29T19:44:58.579Z,100651.53
2019-03-29T19:47:35.610Z,100654.58
2019-03-29T19:50:07.416Z,100648.91
2019-03-29T19:52:42.290Z,100645.62
2019-03-29T19:55:16.122Z,100650.30
2019-03-29T19:57:53.940Z,100639.83
2019-03-29T20:00:53.006Z,100638.62
2019-03-29T20:03:24.330Z,100640.20
2019-03-29T20:06:02.105Z,100634.64
2019-03-29T20:08:40.579Z,100633.28
2019-03-29T20:11:12.354Z,100636.73
2019-03-29T20:13:47.088Z,100633.05
2019-03-29T20:16:18.725Z,100633.95
2019-03-29T20:18:57.382Z,100632.66
2019-03-29T20:21:34.055Z,100627.93
2019-03-29T20:24:05.487Z,100638.03
2019-03-29T20:26:38.140Z,100639.46
2019-03-29T20:29:12.207Z,100633.74
2019-03-29T20:31:44.758Z,100634.48
2019-03-29T20:34:17.678Z,100636.23
2019-03-29T20:36:50.611Z,100631.39
2019-03-29T20:39:22.939Z,100631.10
2019-03-29T20:41:55.458Z,100626.47
2019-03-29T20:44:33.925Z,100623.03
2019-03-29T20:47:08.685Z,100625.42
2019-03-29T20:49:41.444Z,100626.04
2019-03-29T20:52:16.421Z,100621.67
2019-03-29T20:54:48.927Z,100614.70
2019-03-29T20:57:21.635Z,100615.59
2019-03-29T20:59:55.043Z,100611.30
2019-03-29T21:02:26.564Z,100608.38
2019-03-29T21:04:57.866Z,100613.71
2019-03-29T21:07:29.193Z,100605.12
2019-03-29T21:10:06.876Z,100599.58
2019-03-29T21:12:38.338Z,100598.30
2019-03-29T21:15:11.569Z,100599.92
2019-03-29T21:17:56.036Z,100603.48
2019-03-29T21:20:15.998Z,100603.84
2019-03-29T21:22:47.398Z,100592.92
2019-03-29T21:25:18.695Z,100596.92
2019-03-29T21:27:49.998Z,100603.04
2019-03-29T21:30:21.819Z,100596.48
2019-03-29T21:32:54.063Z,100591.02
2019-03-29T21:35:25.330Z,100590.95
2019-03-29T21:37:56.725Z,100592.44
2019-03-29T21:40:28.134Z,100598.66
2019-03-29T21:43:01.820Z,100587.69
2019-03-29T21:45:32.316Z,100589.90
2019-03-29T21:48:26.931Z,100587.64
2019-03-29T21:50:36.460Z,100582.34
2019-03-29T21:53:08.134Z,100577.73
2019-03-29T21:55:39.238Z,100577.30
2019-03-29T21:58:10.539Z,100582.58
2019-03-29T22:00:41.668Z,100578.94
2019-03-29T22:03:13.097Z,100576.98
2019-03-29T22:05:44.763Z,100571.50
2019-03-29T22:08:17.960Z,100570.77
2019-03-29T22:10:49.209Z,100565.23
2019-03-29T22:13:20.441Z,100564.50
2019-03-29T22:15:51.643Z,100561.94
2019-03-29T22:18:22.780Z,100561.47
2019-03-29T22:20:53.862Z,100554.16
2019-03-29T22:23:25.044Z,100557.92
2019-03-29T22:25:57.875Z,100561.12
2019-03-29T22:28:29.334Z,100559.92
2019-03-29T22:31:00.713Z,100563.41
2019-03-29T22:33:31.978Z,100560.26
2019-03-29T22:36:03.219Z,100551.03
2019-03-29T22:38:34.395Z,100550.97
2019-03-29T22:41:05.636Z,100547.58
2019-03-29T22:43:36.745Z,100543.22
2019-03-29T22:46:08.091Z,100543.81
2019-03-29T22:48:51.699Z,100547.49
2019-03-29T22:51:12.640Z,100548.64
2019-03-29T22:53:43.911Z,100546.89
2019-03-29T22:56:15.246Z,100538.97
2019-03-29T22:58:46.714Z,100539.89
2019-03-29T23:01:18.468Z,100537.55
2019-03-29T23:03:49.800Z,100533.95
2019-03-29T23:06:21.043Z,100532.83
2019-03-29T23:08:52.145Z,100526.42
2019-03-29T23:11:23.352Z,100531.20
2019-03-29T23:13:54.617Z,100529.27
2019-03-29T23:16:25.762Z,100537.03
2019-03-29T23:19:06.353Z,100526.00
2019-03-29T23:21:29.800Z,100526.58
2019-03-29T23:24:00.940Z,100520.23
2019-03-29T23:26:32.036Z,100522.64
2019-03-29T23:29:03.243Z,100523.23
2019-03-29T23:31:34.346Z,100523.88
2019-03-29T23:34:05.677Z,100522.73
2019-03-29T23:36:36.852Z,100518.95
2019-03-29T23:39:09.036Z,100515.67
2019-03-29T23:41:40.141Z,100521.95
2019-03-29T23:44:11.346Z,100523.52
2019-03-29T23:46:42.613Z,100513.33
2019-03-29T23:49:21.069Z,100518.80
2019-03-29T23:51:47.106Z,100519.16
2019-03-29T23:54:18.311Z,100525.95
2019-03-29T23:56:49.551Z,100522.36
2019-03-29T23:59:20.652Z,100515.27
